sensor_id;sensor_type;location;lat;lon;timestamp;P1;durP1;ratioP1;P2;durP2;ratioP2
55364;SDS011;41245;45.384;20.390;2023-03-24T00:01:00;17.35;;;12.15;;
55364;SDS011;41245;45.384;20.390;2023-03-24T00:03:26;23.88;;;14.68;;
55364;SDS011;41245;45.384;20.390;2023-03-24T00:06:01;24.40;;;14.20;;
55364;SDS011;41245;45.384;20.390;2023-03-24T00:08:29;25.48;;;15.43;;
55364;SDS011;41245;45.384;20.390;2023-03-24T00:11:03;22.65;;;15.60;;
55364;SDS011;41245;45.384;20.390;2023-03-24T00:13:31;24.02;;;14.93;;
55364;SDS011;41245;45.384;20.390;2023-03-24T00:16:02;24.85;;;13.55;;
55364;SDS011;41245;45.384;20.390;2023-03-24T00:18:28;24.13;;;16.05;;
55364;SDS011;41245;45.384;20.390;2023-03-24T00:20:54;22.90;;;14.02;;
55364;SDS011;41245;45.384;20.390;2023-03-24T00:23:24;23.02;;;14.50;;
55364;SDS011;41245;45.384;20.390;2023-03-24T00:25:57;27.70;;;16.08;;
55364;SDS011;41245;45.384;20.390;2023-03-24T00:28:26;26.50;;;15.32;;
55364;SDS011;41245;45.384;20.390;2023-03-24T00:30:52;25.48;;;15.10;;
55364;SDS011;41245;45.384;20.390;2023-03-24T00:33:18;25.25;;;14.98;;
55364;SDS011;41245;45.384;20.390;2023-03-24T00:35:44;29.45;;;17.17;;
55364;SDS011;41245;45.384;20.390;2023-03-24T00:38:12;23.15;;;14.93;;
55364;SDS011;41245;45.384;20.390;2023-03-24T00:40:43;21.48;;;14.30;;
55364;SDS011;41245;45.384;20.390;2023-03-24T00:43:09;19.70;;;13.13;;
55364;SDS011;41245;45.384;20.390;2023-03-24T00:45:37;23.15;;;14.52;;
55364;SDS011;41245;45.384;20.390;2023-03-24T00:48:10;23.17;;;14.30;;
55364;SDS011;41245;45.384;20.390;2023-03-24T00:50:36;21.67;;;13.52;;
55364;SDS011;41245;45.384;20.390;2023-03-24T00:53:02;24.85;;;16.00;;
55364;SDS011;41245;45.384;20.390;2023-03-24T00:55:28;21.35;;;14.50;;
55364;SDS011;41245;45.384;20.390;2023-03-24T00:57:54;24.27;;;14.60;;
55364;SDS011;41245;45.384;20.390;2023-03-24T01:00:21;20.40;;;14.40;;
55364;SDS011;41245;45.384;20.390;2023-03-24T01:02:48;27.60;;;15.93;;
55364;SDS011;41245;45.384;20.390;2023-03-24T01:05:17;21.25;;;14.18;;
55364;SDS011;41245;45.384;20.390;2023-03-24T01:07:44;23.80;;;15.15;;
55364;SDS011;41245;45.384;20.390;2023-03-24T01:10:16;27.13;;;16.40;;
55364;SDS011;41245;45.384;20.390;2023-03-24T01:12:43;26.88;;;15.52;;
55364;SDS011;41245;45.384;20.390;2023-03-24T01:15:13;39.03;;;19.00;;
55364;SDS011;41245;45.384;20.390;2023-03-24T01:17:40;23.83;;;15.52;;
55364;SDS011;41245;45.384;20.390;2023-03-24T01:20:06;26.17;;;15.50;;
55364;SDS011;41245;45.384;20.390;2023-03-24T01:22:35;30.85;;;16.90;;
55364;SDS011;41245;45.384;20.390;2023-03-24T01:25:02;32.30;;;17.85;;
55364;SDS011;41245;45.384;20.390;2023-03-24T01:27:29;27.50;;;16.50;;
55364;SDS011;41245;45.384;20.390;2023-03-24T01:29:59;26.90;;;14.98;;
55364;SDS011;41245;45.384;20.390;2023-03-24T01:32:25;26.52;;;16.02;;
55364;SDS011;41245;45.384;20.390;2023-03-24T01:34:51;27.25;;;18.05;;
55364;SDS011;41245;45.384;20.390;2023-03-24T01:37:17;27.25;;;16.80;;
55364;SDS011;41245;45.384;20.390;2023-03-24T01:39:43;29.23;;;16.85;;
55364;SDS011;41245;45.384;20.390;2023-03-24T01:42:20;34.15;;;16.33;;
55364;SDS011;41245;45.384;20.390;2023-03-24T01:44:48;28.25;;;16.75;;
55364;SDS011;41245;45.384;20.390;2023-03-24T01:47:14;29.48;;;17.00;;
55364;SDS011;41245;45.384;20.390;2023-03-24T01:50:14;30.77;;;18.80;;
55364;SDS011;41245;45.384;20.390;2023-03-24T01:52:33;34.78;;;17.05;;
55364;SDS011;41245;45.384;20.390;2023-03-24T01:55:05;32.63;;;17.75;;
55364;SDS011;41245;45.384;20.390;2023-03-24T01:57:43;28.88;;;16.92;;
55364;SDS011;41245;45.384;20.390;2023-03-24T02:00:12;39.28;;;17.85;;
55364;SDS011;41245;45.384;20.390;2023-03-24T02:02:42;24.00;;;15.75;;
55364;SDS011;41245;45.384;20.390;2023-03-24T02:05:10;32.67;;;18.23;;
55364;SDS011;41245;45.384;20.390;2023-03-24T02:10:07;31.97;;;18.53;;
55364;SDS011;41245;45.384;20.390;2023-03-24T02:12:34;25.13;;;17.05;;
55364;SDS011;41245;45.384;20.390;2023-03-24T02:15:01;27.35;;;17.63;;
55364;SDS011;41245;45.384;20.390;2023-03-24T02:31:32;28.25;;;17.65;;
55364;SDS011;41245;45.384;20.390;2023-03-24T02:52:39;32.22;;;19.30;;
55364;SDS011;41245;45.384;20.390;2023-03-24T02:55:14;31.33;;;18.85;;
55364;SDS011;41245;45.384;20.390;2023-03-24T02:57:43;41.85;;;20.02;;
55364;SDS011;41245;45.384;20.390;2023-03-24T03:03:04;36.85;;;19.65;;
55364;SDS011;41245;45.384;20.390;2023-03-24T03:08:00;30.20;;;17.30;;
55364;SDS011;41245;45.384;20.390;2023-03-24T03:10:32;32.65;;;19.65;;
55364;SDS011;41245;45.384;20.390;2023-03-24T03:13:00;30.88;;;17.70;;
55364;SDS011;41245;45.384;20.390;2023-03-24T03:15:28;32.17;;;17.73;;
55364;SDS011;41245;45.384;20.390;2023-03-24T03:18:01;31.77;;;18.10;;
55364;SDS011;41245;45.384;20.390;2023-03-24T03:20:32;33.20;;;18.60;;
55364;SDS011;41245;45.384;20.390;2023-03-24T03:23:02;34.33;;;18.30;;
55364;SDS011;41245;45.384;20.390;2023-03-24T03:25:32;31.15;;;18.55;;
55364;SDS011;41245;45.384;20.390;2023-03-24T03:27:59;29.02;;;18.92;;
55364;SDS011;41245;45.384;20.390;2023-03-24T03:30:29;34.78;;;18.85;;
55364;SDS011;41245;45.384;20.390;2023-03-24T03:33:03;30.65;;;18.30;;
55364;SDS011;41245;45.384;20.390;2023-03-24T03:43:14;34.72;;;18.80;;
55364;SDS011;41245;45.384;20.390;2023-03-24T03:45:40;30.42;;;18.90;;
55364;SDS011;41245;45.384;20.390;2023-03-24T03:48:06;30.65;;;18.02;;
55364;SDS011;41245;45.384;20.390;2023-03-24T03:50:32;35.03;;;19.17;;
55364;SDS011;41245;45.384;20.390;2023-03-24T03:52:58;29.17;;;17.98;;
55364;SDS011;41245;45.384;20.390;2023-03-24T03:55:25;40.28;;;19.88;;
55364;SDS011;41245;45.384;20.390;2023-03-24T03:57:51;35.33;;;19.05;;
55364;SDS011;41245;45.384;20.390;2023-03-24T04:00:18;30.48;;;17.08;;
55364;SDS011;41245;45.384;20.390;2023-03-24T04:05:25;27.42;;;17.70;;
55364;SDS011;41245;45.384;20.390;2023-03-24T04:15:54;34.17;;;16.83;;
55364;SDS011;41245;45.384;20.390;2023-03-24T04:21:09;26.60;;;16.42;;
55364;SDS011;41245;45.384;20.390;2023-03-24T04:23:41;34.58;;;17.23;;
55364;SDS011;41245;45.384;20.390;2023-03-24T04:26:25;27.95;;;17.13;;
55364;SDS011;41245;45.384;20.390;2023-03-24T04:28:56;41.40;;;18.50;;
55364;SDS011;41245;45.384;20.390;2023-03-24T04:31:31;32.08;;;17.98;;
55364;SDS011;41245;45.384;20.390;2023-03-24T04:34:17;69.28;;;20.63;;
55364;SDS011;41245;45.384;20.390;2023-03-24T04:36:55;47.40;;;19.77;;
55364;SDS011;41245;45.384;20.390;2023-03-24T04:39:28;42.90;;;20.90;;
55364;SDS011;41245;45.384;20.390;2023-03-24T04:41:56;38.30;;;21.58;;
55364;SDS011;41245;45.384;20.390;2023-03-24T04:44:23;41.55;;;21.88;;
55364;SDS011;41245;45.384;20.390;2023-03-24T04:46:50;46.65;;;20.35;;
55364;SDS011;41245;45.384;20.390;2023-03-24T04:49:16;31.00;;;20.88;;
55364;SDS011;41245;45.384;20.390;2023-03-24T04:51:49;50.20;;;23.13;;
55364;SDS011;41245;45.384;20.390;2023-03-24T04:54:15;42.50;;;22.80;;
55364;SDS011;41245;45.384;20.390;2023-03-24T04:59:07;37.72;;;22.17;;
55364;SDS011;41245;45.384;20.390;2023-03-24T05:01:34;45.72;;;21.95;;
55364;SDS011;41245;45.384;20.390;2023-03-24T05:04:01;42.30;;;20.30;;
55364;SDS011;41245;45.384;20.390;2023-03-24T05:06:28;34.20;;;19.75;;
55364;SDS011;41245;45.384;20.390;2023-03-24T05:08:54;39.03;;;20.00;;
55364;SDS011;41245;45.384;20.390;2023-03-24T05:11:23;27.88;;;16.92;;
55364;SDS011;41245;45.384;20.390;2023-03-24T05:13:49;28.80;;;16.30;;
55364;SDS011;41245;45.384;20.390;2023-03-24T05:16:15;26.80;;;17.48;;
55364;SDS011;41245;45.384;20.390;2023-03-24T05:18:41;38.63;;;17.02;;
55364;SDS011;41245;45.384;20.390;2023-03-24T05:21:07;25.63;;;14.93;;
55364;SDS011;41245;45.384;20.390;2023-03-24T05:23:34;29.92;;;16.63;;
55364;SDS011;41245;45.384;20.390;2023-03-24T05:26:00;30.00;;;16.80;;
55364;SDS011;41245;45.384;20.390;2023-03-24T05:28:26;32.50;;;18.02;;
55364;SDS011;41245;45.384;20.390;2023-03-24T05:30:52;27.38;;;16.25;;
55364;SDS011;41245;45.384;20.390;2023-03-24T05:33:18;32.85;;;17.98;;
55364;SDS011;41245;45.384;20.390;2023-03-24T05:35:44;31.48;;;17.67;;
55364;SDS011;41245;45.384;20.390;2023-03-24T05:38:10;29.10;;;18.27;;
55364;SDS011;41245;45.384;20.390;2023-03-24T05:40:36;30.85;;;17.85;;
55364;SDS011;41245;45.384;20.390;2023-03-24T05:43:02;31.63;;;16.55;;
55364;SDS011;41245;45.384;20.390;2023-03-24T05:45:29;25.40;;;15.50;;
55364;SDS011;41245;45.384;20.390;2023-03-24T05:47:55;28.77;;;15.45;;
55364;SDS011;41245;45.384;20.390;2023-03-24T05:50:21;24.65;;;16.15;;
55364;SDS011;41245;45.384;20.390;2023-03-24T05:52:50;42.40;;;16.88;;
55364;SDS011;41245;45.384;20.390;2023-03-24T05:55:16;32.97;;;15.85;;
55364;SDS011;41245;45.384;20.390;2023-03-24T05:57:43;26.13;;;14.55;;
55364;SDS011;41245;45.384;20.390;2023-03-24T06:00:10;21.20;;;13.73;;
55364;SDS011;41245;45.384;20.390;2023-03-24T06:02:41;29.98;;;14.15;;
55364;SDS011;41245;45.384;20.390;2023-03-24T06:05:08;28.15;;;15.00;;
55364;SDS011;41245;45.384;20.390;2023-03-24T06:07:34;21.98;;;14.52;;
55364;SDS011;41245;45.384;20.390;2023-03-24T06:10:00;30.25;;;15.15;;
55364;SDS011;41245;45.384;20.390;2023-03-24T06:12:31;21.95;;;14.10;;
55364;SDS011;41245;45.384;20.390;2023-03-24T06:14:58;31.88;;;16.00;;
55364;SDS011;41245;45.384;20.390;2023-03-24T06:17:25;24.50;;;15.43;;
55364;SDS011;41245;45.384;20.390;2023-03-24T06:19:52;23.02;;;14.07;;
55364;SDS011;41245;45.384;20.390;2023-03-24T06:22:18;24.50;;;14.93;;
55364;SDS011;41245;45.384;20.390;2023-03-24T06:24:45;33.22;;;14.48;;
55364;SDS011;41245;45.384;20.390;2023-03-24T06:27:11;24.40;;;13.85;;
55364;SDS011;41245;45.384;20.390;2023-03-24T06:29:38;30.17;;;16.25;;
55364;SDS011;41245;45.384;20.390;2023-03-24T06:32:08;22.42;;;14.20;;
55364;SDS011;41245;45.384;20.390;2023-03-24T06:34:34;25.65;;;14.38;;
55364;SDS011;41245;45.384;20.390;2023-03-24T06:37:02;28.50;;;13.77;;
55364;SDS011;41245;45.384;20.390;2023-03-24T06:39:29;28.42;;;14.27;;
55364;SDS011;41245;45.384;20.390;2023-03-24T06:41:55;26.20;;;13.23;;
55364;SDS011;41245;45.384;20.390;2023-03-24T06:44:21;23.63;;;14.25;;
55364;SDS011;41245;45.384;20.390;2023-03-24T06:46:47;22.40;;;13.43;;
55364;SDS011;41245;45.384;20.390;2023-03-24T06:49:13;21.20;;;13.00;;
55364;SDS011;41245;45.384;20.390;2023-03-24T06:51:39;23.67;;;14.38;;
55364;SDS011;41245;45.384;20.390;2023-03-24T06:54:05;22.63;;;13.52;;
55364;SDS011;41245;45.384;20.390;2023-03-24T06:56:31;21.20;;;13.57;;
55364;SDS011;41245;45.384;20.390;2023-03-24T06:58:58;23.08;;;13.48;;
55364;SDS011;41245;45.384;20.390;2023-03-24T07:01:24;24.08;;;13.40;;
55364;SDS011;41245;45.384;20.390;2023-03-24T07:03:50;24.45;;;12.75;;
55364;SDS011;41245;45.384;20.390;2023-03-24T07:06:16;28.55;;;14.10;;
55364;SDS011;41245;45.384;20.390;2023-03-24T07:08:42;23.42;;;12.95;;
55364;SDS011;41245;45.384;20.390;2023-03-24T07:11:08;19.23;;;11.70;;
55364;SDS011;41245;45.384;20.390;2023-03-24T07:13:34;23.13;;;12.70;;
55364;SDS011;41245;45.384;20.390;2023-03-24T07:16:01;19.80;;;13.25;;
55364;SDS011;41245;45.384;20.390;2023-03-24T07:18:27;24.55;;;13.52;;
55364;SDS011;41245;45.384;20.390;2023-03-24T07:20:52;21.02;;;13.45;;
55364;SDS011;41245;45.384;20.390;2023-03-24T07:23:18;20.90;;;13.50;;
55364;SDS011;41245;45.384;20.390;2023-03-24T07:25:45;18.67;;;13.38;;
55364;SDS011;41245;45.384;20.390;2023-03-24T07:28:11;18.70;;;12.95;;
55364;SDS011;41245;45.384;20.390;2023-03-24T07:30:37;20.80;;;13.18;;
55364;SDS011;41245;45.384;20.390;2023-03-24T07:33:03;32.58;;;13.52;;
55364;SDS011;41245;45.384;20.390;2023-03-24T07:35:31;21.17;;;13.50;;
55364;SDS011;41245;45.384;20.390;2023-03-24T07:37:57;27.08;;;13.43;;
55364;SDS011;41245;45.384;20.390;2023-03-24T07:40:23;22.55;;;12.13;;
55364;SDS011;41245;45.384;20.390;2023-03-24T07:42:49;17.60;;;11.43;;
55364;SDS011;41245;45.384;20.390;2023-03-24T07:45:15;23.52;;;12.65;;
55364;SDS011;41245;45.384;20.390;2023-03-24T07:47:42;15.82;;;12.13;;
55364;SDS011;41245;45.384;20.390;2023-03-24T07:50:09;17.58;;;11.68;;
55364;SDS011;41245;45.384;20.390;2023-03-24T07:52:36;22.00;;;12.70;;
55364;SDS011;41245;45.384;20.390;2023-03-24T07:55:02;15.82;;;11.65;;
55364;SDS011;41245;45.384;20.390;2023-03-24T07:57:28;17.13;;;11.90;;
55364;SDS011;41245;45.384;20.390;2023-03-24T07:59:54;23.38;;;12.32;;
55364;SDS011;41245;45.384;20.390;2023-03-24T08:02:20;24.30;;;12.20;;
55364;SDS011;41245;45.384;20.390;2023-03-24T08:04:49;17.27;;;11.10;;
55364;SDS011;41245;45.384;20.390;2023-03-24T08:07:18;15.50;;;10.98;;
55364;SDS011;41245;45.384;20.390;2023-03-24T08:09:43;21.42;;;11.00;;
55364;SDS011;41245;45.384;20.390;2023-03-24T08:12:09;25.23;;;12.25;;
55364;SDS011;41245;45.384;20.390;2023-03-24T08:14:36;19.98;;;11.32;;
55364;SDS011;41245;45.384;20.390;2023-03-24T08:17:01;16.50;;;11.07;;
55364;SDS011;41245;45.384;20.390;2023-03-24T08:19:28;19.80;;;10.45;;
55364;SDS011;41245;45.384;20.390;2023-03-24T08:21:54;19.20;;;10.38;;
55364;SDS011;41245;45.384;20.390;2023-03-24T08:24:20;13.68;;;9.32;;
55364;SDS011;41245;45.384;20.390;2023-03-24T08:26:46;18.95;;;10.68;;
55364;SDS011;41245;45.384;20.390;2023-03-24T08:29:12;17.73;;;10.75;;
55364;SDS011;41245;45.384;20.390;2023-03-24T08:31:38;15.57;;;9.95;;
55364;SDS011;41245;45.384;20.390;2023-03-24T08:34:04;17.15;;;10.88;;
55364;SDS011;41245;45.384;20.390;2023-03-24T08:36:31;21.67;;;11.32;;
55364;SDS011;41245;45.384;20.390;2023-03-24T08:38:57;15.38;;;9.82;;
55364;SDS011;41245;45.384;20.390;2023-03-24T08:41:25;20.20;;;10.73;;
55364;SDS011;41245;45.384;20.390;2023-03-24T08:43:58;18.08;;;9.60;;
55364;SDS011;41245;45.384;20.390;2023-03-24T08:46:25;28.90;;;9.65;;
55364;SDS011;41245;45.384;20.390;2023-03-24T08:48:51;17.08;;;10.65;;
55364;SDS011;41245;45.384;20.390;2023-03-24T08:51:17;14.40;;;9.77;;
55364;SDS011;41245;45.384;20.390;2023-03-24T08:53:43;17.63;;;9.00;;
55364;SDS011;41245;45.384;20.390;2023-03-24T08:56:09;13.50;;;8.80;;
55364;SDS011;41245;45.384;20.390;2023-03-24T08:58:35;16.45;;;9.15;;
55364;SDS011;41245;45.384;20.390;2023-03-24T09:01:01;14.27;;;8.50;;
55364;SDS011;41245;45.384;20.390;2023-03-24T09:03:28;13.48;;;9.02;;
55364;SDS011;41245;45.384;20.390;2023-03-24T09:05:55;21.40;;;9.40;;
55364;SDS011;41245;45.384;20.390;2023-03-24T09:08:22;19.55;;;9.32;;
55364;SDS011;41245;45.384;20.390;2023-03-24T09:10:48;19.25;;;9.02;;
55364;SDS011;41245;45.384;20.390;2023-03-24T09:13:15;12.93;;;9.50;;
55364;SDS011;41245;45.384;20.390;2023-03-24T09:15:48;16.70;;;8.75;;
55364;SDS011;41245;45.384;20.390;2023-03-24T09:18:15;10.73;;;8.40;;
55364;SDS011;41245;45.384;20.390;2023-03-24T09:20:42;12.43;;;8.98;;
55364;SDS011;41245;45.384;20.390;2023-03-24T09:23:09;14.00;;;8.70;;
55364;SDS011;41245;45.384;20.390;2023-03-24T09:25:35;17.95;;;8.00;;
55364;SDS011;41245;45.384;20.390;2023-03-24T09:28:01;13.25;;;7.30;;
55364;SDS011;41245;45.384;20.390;2023-03-24T09:30:26;8.75;;;7.15;;
55364;SDS011;41245;45.384;20.390;2023-03-24T09:32:52;14.25;;;8.93;;
55364;SDS011;41245;45.384;20.390;2023-03-24T09:35:18;22.02;;;8.63;;
55364;SDS011;41245;45.384;20.390;2023-03-24T09:37:44;15.82;;;8.05;;
55364;SDS011;41245;45.384;20.390;2023-03-24T09:40:18;20.55;;;9.25;;
55364;SDS011;41245;45.384;20.390;2023-03-24T09:42:49;12.88;;;7.43;;
55364;SDS011;41245;45.384;20.390;2023-03-24T09:45:25;13.73;;;7.68;;
55364;SDS011;41245;45.384;20.390;2023-03-24T09:47:55;10.35;;;7.18;;
55364;SDS011;41245;45.384;20.390;2023-03-24T09:50:34;20.40;;;8.13;;
55364;SDS011;41245;45.384;20.390;2023-03-24T09:56:25;13.70;;;7.88;;
55364;SDS011;41245;45.384;20.390;2023-03-24T09:59:01;16.33;;;7.45;;
55364;SDS011;41245;45.384;20.390;2023-03-24T10:01:29;13.40;;;7.07;;
55364;SDS011;41245;45.384;20.390;2023-03-24T10:03:55;14.93;;;7.57;;
55364;SDS011;41245;45.384;20.390;2023-03-24T10:06:24;13.70;;;8.23;;
55364;SDS011;41245;45.384;20.390;2023-03-24T10:11:52;13.02;;;7.60;;
55364;SDS011;41245;45.384;20.390;2023-03-24T10:25:23;34.25;;;9.77;;
55364;SDS011;41245;45.384;20.390;2023-03-24T10:28:04;32.65;;;9.13;;
55364;SDS011;41245;45.384;20.390;2023-03-24T10:30:45;13.02;;;7.28;;
55364;SDS011;41245;45.384;20.390;2023-03-24T10:33:13;17.02;;;8.20;;
55364;SDS011;41245;45.384;20.390;2023-03-24T10:35:59;17.73;;;7.60;;
55364;SDS011;41245;45.384;20.390;2023-03-24T10:38:32;18.85;;;7.55;;
55364;SDS011;41245;45.384;20.390;2023-03-24T10:40:58;12.65;;;7.10;;
55364;SDS011;41245;45.384;20.390;2023-03-24T10:43:24;10.55;;;6.85;;
55364;SDS011;41245;45.384;20.390;2023-03-24T10:45:52;15.02;;;6.45;;
55364;SDS011;41245;45.384;20.390;2023-03-24T10:49:05;8.50;;;5.63;;
55364;SDS011;41245;45.384;20.390;2023-03-24T10:51:16;12.45;;;5.78;;
55364;SDS011;41245;45.384;20.390;2023-03-24T10:53:44;9.05;;;5.90;;
55364;SDS011;41245;45.384;20.390;2023-03-24T10:56:15;13.13;;;5.15;;
55364;SDS011;41245;45.384;20.390;2023-03-24T10:58:43;9.55;;;6.20;;
55364;SDS011;41245;45.384;20.390;2023-03-24T11:03:48;20.20;;;5.80;;
55364;SDS011;41245;45.384;20.390;2023-03-24T11:06:16;7.43;;;4.80;;
55364;SDS011;41245;45.384;20.390;2023-03-24T11:08:43;6.70;;;5.10;;
55364;SDS011;41245;45.384;20.390;2023-03-24T11:11:28;11.23;;;5.32;;
55364;SDS011;41245;45.384;20.390;2023-03-24T11:13:57;9.35;;;5.03;;
55364;SDS011;41245;45.384;20.390;2023-03-24T11:16:29;8.10;;;5.10;;
55364;SDS011;41245;45.384;20.390;2023-03-24T11:19:00;8.13;;;5.55;;
55364;SDS011;41245;45.384;20.390;2023-03-24T11:21:29;5.77;;;4.40;;
55364;SDS011;41245;45.384;20.390;2023-03-24T11:24:02;6.80;;;3.92;;
55364;SDS011;41245;45.384;20.390;2023-03-24T11:26:34;8.25;;;4.00;;
55364;SDS011;41245;45.384;20.390;2023-03-24T11:29:06;11.00;;;4.47;;
55364;SDS011;41245;45.384;20.390;2023-03-24T11:31:39;4.80;;;3.75;;
55364;SDS011;41245;45.384;20.390;2023-03-24T11:34:09;7.38;;;3.15;;
55364;SDS011;41245;45.384;20.390;2023-03-24T11:41:51;13.13;;;4.28;;
55364;SDS011;41245;45.384;20.390;2023-03-24T11:44:18;4.15;;;3.10;;
55364;SDS011;41245;45.384;20.390;2023-03-24T11:46:47;7.35;;;4.93;;
55364;SDS011;41245;45.384;20.390;2023-03-24T11:49:18;6.70;;;4.00;;
55364;SDS011;41245;45.384;20.390;2023-03-24T11:51:48;6.53;;;4.18;;
55364;SDS011;41245;45.384;20.390;2023-03-24T11:54:17;4.75;;;4.10;;
55364;SDS011;41245;45.384;20.390;2023-03-24T11:57:08;6.35;;;3.75;;
55364;SDS011;41245;45.384;20.390;2023-03-24T11:59:47;12.93;;;6.80;;
55364;SDS011;41245;45.384;20.390;2023-03-24T12:18:41;9.60;;;3.72;;
55364;SDS011;41245;45.384;20.390;2023-03-24T12:30:12;9.93;;;3.95;;
55364;SDS011;41245;45.384;20.390;2023-03-24T12:32:55;7.28;;;4.38;;
55364;SDS011;41245;45.384;20.390;2023-03-24T12:50:53;11.00;;;3.10;;
55364;SDS011;41245;45.384;20.390;2023-03-24T12:55:42;4.28;;;2.65;;
55364;SDS011;41245;45.384;20.390;2023-03-24T13:01:06;5.15;;;3.13;;
55364;SDS011;41245;45.384;20.390;2023-03-24T13:04:38;7.53;;;3.42;;
55364;SDS011;41245;45.384;20.390;2023-03-24T13:06:51;6.68;;;3.17;;
55364;SDS011;41245;45.384;20.390;2023-03-24T13:14:47;7.20;;;3.58;;
55364;SDS011;41245;45.384;20.390;2023-03-24T13:17:19;9.93;;;3.92;;
55364;SDS011;41245;45.384;20.390;2023-03-24T13:19:48;5.40;;;3.28;;
55364;SDS011;41245;45.384;20.390;2023-03-24T13:22:17;14.80;;;3.90;;
55364;SDS011;41245;45.384;20.390;2023-03-24T13:24:44;4.78;;;3.17;;
55364;SDS011;41245;45.384;20.390;2023-03-24T13:27:17;9.13;;;3.70;;
55364;SDS011;41245;45.384;20.390;2023-03-24T13:32:55;4.70;;;3.42;;
55364;SDS011;41245;45.384;20.390;2023-03-24T13:40:37;6.70;;;3.03;;
55364;SDS011;41245;45.384;20.390;2023-03-24T13:43:10;14.05;;;3.47;;
55364;SDS011;41245;45.384;20.390;2023-03-24T13:45:41;10.25;;;3.20;;
55364;SDS011;41245;45.384;20.390;2023-03-24T13:50:36;7.10;;;3.13;;
55364;SDS011;41245;45.384;20.390;2023-03-24T13:56:01;9.30;;;3.85;;
55364;SDS011;41245;45.384;20.390;2023-03-24T14:01:43;21.67;;;4.25;;
55364;SDS011;41245;45.384;20.390;2023-03-24T14:14:27;6.47;;;3.78;;
55364;SDS011;41245;45.384;20.390;2023-03-24T14:19:41;13.07;;;4.82;;
55364;SDS011;41245;45.384;20.390;2023-03-24T14:24:58;6.93;;;4.03;;
55364;SDS011;41245;45.384;20.390;2023-03-24T14:29:58;6.88;;;3.60;;
55364;SDS011;41245;45.384;20.390;2023-03-24T14:32:25;12.63;;;4.55;;
55364;SDS011;41245;45.384;20.390;2023-03-24T14:34:55;13.23;;;4.38;;
55364;SDS011;41245;45.384;20.390;2023-03-24T14:37:23;6.90;;;3.88;;
55364;SDS011;41245;45.384;20.390;2023-03-24T14:39:50;6.53;;;3.75;;
55364;SDS011;41245;45.384;20.390;2023-03-24T14:45:02;11.57;;;4.22;;
55364;SDS011;41245;45.384;20.390;2023-03-24T14:47:29;8.45;;;3.53;;
55364;SDS011;41245;45.384;20.390;2023-03-24T14:49:57;5.97;;;3.38;;
55364;SDS011;41245;45.384;20.390;2023-03-24T14:52:36;6.05;;;3.05;;
55364;SDS011;41245;45.384;20.390;2023-03-24T14:55:11;7.50;;;3.30;;
55364;SDS011;41245;45.384;20.390;2023-03-24T14:57:43;7.55;;;3.60;;
55364;SDS011;41245;45.384;20.390;2023-03-24T15:00:33;9.15;;;4.45;;
55364;SDS011;41245;45.384;20.390;2023-03-24T15:03:16;5.50;;;2.97;;
55364;SDS011;41245;45.384;20.390;2023-03-24T15:05:51;7.85;;;3.53;;
55364;SDS011;41245;45.384;20.390;2023-03-24T15:08:20;5.78;;;3.20;;
55364;SDS011;41245;45.384;20.390;2023-03-24T15:11:05;5.85;;;3.33;;
55364;SDS011;41245;45.384;20.390;2023-03-24T15:18:35;10.00;;;3.20;;
55364;SDS011;41245;45.384;20.390;2023-03-24T15:21:24;6.82;;;3.17;;
55364;SDS011;41245;45.384;20.390;2023-03-24T15:24:22;9.13;;;3.33;;
55364;SDS011;41245;45.384;20.390;2023-03-24T15:31:59;8.98;;;3.47;;
55364;SDS011;41245;45.384;20.390;2023-03-24T15:37:03;5.53;;;3.03;;
55364;SDS011;41245;45.384;20.390;2023-03-24T15:39:34;7.88;;;2.90;;
55364;SDS011;41245;45.384;20.390;2023-03-24T15:42:05;4.35;;;3.05;;
55364;SDS011;41245;45.384;20.390;2023-03-24T15:44:36;13.88;;;3.95;;
55364;SDS011;41245;45.384;20.390;2023-03-24T15:47:03;10.48;;;3.70;;
55364;SDS011;41245;45.384;20.390;2023-03-24T15:49:44;3.83;;;2.75;;
55364;SDS011;41245;45.384;20.390;2023-03-24T15:54:54;16.50;;;4.20;;
55364;SDS011;41245;45.384;20.390;2023-03-24T15:57:24;10.73;;;3.90;;
55364;SDS011;41245;45.384;20.390;2023-03-24T16:00:12;13.88;;;3.58;;
55364;SDS011;41245;45.384;20.390;2023-03-24T16:02:49;8.30;;;3.17;;
55364;SDS011;41245;45.384;20.390;2023-03-24T16:05:51;8.85;;;3.17;;
55364;SDS011;41245;45.384;20.390;2023-03-24T16:11:03;8.20;;;3.03;;
55364;SDS011;41245;45.384;20.390;2023-03-24T16:13:34;13.95;;;3.65;;
55364;SDS011;41245;45.384;20.390;2023-03-24T16:18:39;6.78;;;3.35;;
55364;SDS011;41245;45.384;20.390;2023-03-24T16:23:42;9.27;;;3.00;;
55364;SDS011;41245;45.384;20.390;2023-03-24T16:26:15;11.25;;;4.20;;
55364;SDS011;41245;45.384;20.390;2023-03-24T16:28:43;10.00;;;3.80;;
55364;SDS011;41245;45.384;20.390;2023-03-24T16:31:22;10.93;;;3.63;;
55364;SDS011;41245;45.384;20.390;2023-03-24T16:33:50;8.75;;;3.88;;
55364;SDS011;41245;45.384;20.390;2023-03-24T16:36:17;9.30;;;4.57;;
55364;SDS011;41245;45.384;20.390;2023-03-24T16:38:46;16.15;;;5.15;;
55364;SDS011;41245;45.384;20.390;2023-03-24T16:41:14;11.27;;;6.27;;
55364;SDS011;41245;45.384;20.390;2023-03-24T16:43:41;14.57;;;6.43;;
55364;SDS011;41245;45.384;20.390;2023-03-24T16:46:17;19.23;;;9.18;;
55364;SDS011;41245;45.384;20.390;2023-03-24T16:48:50;18.05;;;9.40;;
55364;SDS011;41245;45.384;20.390;2023-03-24T16:51:16;20.88;;;7.97;;
55364;SDS011;41245;45.384;20.390;2023-03-24T16:53:42;24.60;;;9.10;;
55364;SDS011;41245;45.384;20.390;2023-03-24T16:56:11;15.55;;;7.20;;
55364;SDS011;41245;45.384;20.390;2023-03-24T16:58:38;12.87;;;8.37;;
55364;SDS011;41245;45.384;20.390;2023-03-24T17:03:50;16.67;;;9.68;;
55364;SDS011;41245;45.384;20.390;2023-03-24T17:06:18;18.80;;;9.75;;
55364;SDS011;41245;45.384;20.390;2023-03-24T17:08:44;19.38;;;9.82;;
55364;SDS011;41245;45.384;20.390;2023-03-24T17:11:11;28.23;;;9.88;;
55364;SDS011;41245;45.384;20.390;2023-03-24T17:13:37;24.77;;;9.23;;
55364;SDS011;41245;45.384;20.390;2023-03-24T17:16:04;22.77;;;9.38;;
55364;SDS011;41245;45.384;20.390;2023-03-24T17:18:30;20.75;;;8.65;;
55364;SDS011;41245;45.384;20.390;2023-03-24T17:20:57;30.02;;;10.85;;
55364;SDS011;41245;45.384;20.390;2023-03-24T17:23:23;31.95;;;14.43;;
55364;SDS011;41245;45.384;20.390;2023-03-24T17:25:49;34.70;;;16.83;;
55364;SDS011;41245;45.384;20.390;2023-03-24T17:28:15;40.80;;;18.60;;
55364;SDS011;41245;45.384;20.390;2023-03-24T17:30:41;33.22;;;15.82;;
55364;SDS011;41245;45.384;20.390;2023-03-24T17:33:10;33.60;;;15.48;;
55364;SDS011;41245;45.384;20.390;2023-03-24T17:35:37;29.20;;;12.98;;
55364;SDS011;41245;45.384;20.390;2023-03-24T17:38:03;35.20;;;14.05;;
55364;SDS011;41245;45.384;20.390;2023-03-24T17:40:30;48.20;;;17.73;;
55364;SDS011;41245;45.384;20.390;2023-03-24T17:42:56;31.58;;;14.52;;
55364;SDS011;41245;45.384;20.390;2023-03-24T17:45:22;40.33;;;14.65;;
55364;SDS011;41245;45.384;20.390;2023-03-24T17:47:48;28.30;;;13.10;;
55364;SDS011;41245;45.384;20.390;2023-03-24T17:50:14;29.65;;;13.95;;
55364;SDS011;41245;45.384;20.390;2023-03-24T17:52:44;29.38;;;11.85;;